Evelyn Maersk — OXHV2 — position and weather

sailwx.info

Track history (hours):
 
Tides and Currents Weather Stations Pressure Air Temp Water Temp Dewpoint Dewpoint Depression Visibility Wind Speed Wind Dir Waves Ship Positions

Evelyn Maersk

Last reported at 2014-Oct-30 23:28 UTC. Time now 2014-Oct-31 06:14 UTC.
Position N 38°32' E 121°13'.

Length 398 m; draft 14.5 m.

Type: Cargo ship. MMSI: 220496000.

Date/timePositionNaut miles runAvg speedWind from/ knotsBaromVisibWave heightAir tempDewpointWater temp
2014-Oct-30 23:28N 38°32' E 121°13'1516.6
2014-Oct-30 22:33N 38°31' E 121°32'1515.1
2014-Oct-30 21:33N 38°41' E 121°47'1616.1
2014-Oct-30 20:32N 38°55' E 121°56'1 0.0
2014-Oct-30 02:10N 38°55' E 121°57'5 8.4
2014-Oct-30 01:33N 38°51' E 122°01'2221.4
2014-Oct-30 00:31N 38°36' E 122°22'2322.2
2014-Oct-29 23:30N 38°21' E 122°43'2122.2
2014-Oct-29 22:34N 38°07' E 123°04'2222.2
2014-Oct-29 21:33N 37°49' E 123°19'2222.1
2014-Oct-29 20:33N 37°28' E 123°29'2121.2
2014-Oct-29 19:33N 37°08' E 123°39'2121.2
2014-Oct-29 18:33N 36°49' E 123°49'2221.6
2014-Oct-29 17:33N 36°29' E 123°59'2221.8
2014-Oct-29 16:33N 36°09' E 124°10'  
2014-Oct-25 18:32N 28°56' E 123°29'5713.8
2014-Oct-25 14:23N 28°12' E 122°48'29513.3
2014-Oct-24 16:14N 24°27' E 119°14'4912.9
2014-Oct-24 12:27N 23°57' E 118°31'1313.9
2014-Oct-24 11:33N 23°49' E 118°21'1413.9
2014-Oct-24 10:33N 23°41' E 118°08'1413.7
2014-Oct-24 09:33N 23°33' E 117°56'1312.9
2014-Oct-24 08:33N 23°26' E 117°45'1711.6
2014-Oct-24 07:08N 23°14' E 117°32'  
Track history (hours):
 
Tides and Currents Weather Stations Pressure Air Temp Water Temp Dewpoint Dewpoint Depression Visibility Wind Speed Wind Dir Waves Ship Positions

Evelyn Maersk

Last reported at 2014-Oct-30 23:28 UTC. Time now 2014-Oct-31 06:14 UTC.
Position N 38°32' E 121°13'.

Length 398 m; draft 14.5 m.

Type: Cargo ship. MMSI: 220496000.

Date/timePositionNaut miles runAvg speedWind from/ knotsBaromVisibWave heightAir tempDewpointWater temp
2014-Oct-30 23:28N 38°32' E 121°13'1516.6
2014-Oct-30 22:33N 38°31' E 121°32'1515.1
2014-Oct-30 21:33N 38°41' E 121°47'1616.1
2014-Oct-30 20:32N 38°55' E 121°56'1 0.0
2014-Oct-30 02:10N 38°55' E 121°57'5 8.4
2014-Oct-30 01:33N 38°51' E 122°01'2221.4
2014-Oct-30 00:31N 38°36' E 122°22'2322.2
2014-Oct-29 23:30N 38°21' E 122°43'2122.2
2014-Oct-29 22:34N 38°07' E 123°04'2222.2
2014-Oct-29 21:33N 37°49' E 123°19'2222.1
2014-Oct-29 20:33N 37°28' E 123°29'2121.2
2014-Oct-29 19:33N 37°08' E 123°39'2121.2
2014-Oct-29 18:33N 36°49' E 123°49'2221.6
2014-Oct-29 17:33N 36°29' E 123°59'2221.8
2014-Oct-29 16:33N 36°09' E 124°10'  
2014-Oct-25 18:32N 28°56' E 123°29'5713.8
2014-Oct-25 14:23N 28°12' E 122°48'29513.3
2014-Oct-24 16:14N 24°27' E 119°14'4912.9
2014-Oct-24 12:27N 23°57' E 118°31'1313.9
2014-Oct-24 11:33N 23°49' E 118°21'1413.9
2014-Oct-24 10:33N 23°41' E 118°08'1413.7
2014-Oct-24 09:33N 23°33' E 117°56'1312.9
2014-Oct-24 08:33N 23°26' E 117°45'1711.6
2014-Oct-24 07:08N 23°14' E 117°32'  

Dump ship's entire track history